sensor_id;sensor_type;location;lat;lon;timestamp;temperature;humidity
26621;DHT22;14253;44.840;10.444;2023-12-20T00:00:08;1.30;99.90
26621;DHT22;14253;44.840;10.444;2023-12-20T00:02:34;1.30;99.90
26621;DHT22;14253;44.840;10.444;2023-12-20T00:05:00;1.30;99.90
26621;DHT22;14253;44.840;10.444;2023-12-20T00:07:26;1.20;99.90
26621;DHT22;14253;44.840;10.444;2023-12-20T00:09:52;1.20;99.90
26621;DHT22;14253;44.840;10.444;2023-12-20T00:12:18;1.20;99.90
26621;DHT22;14253;44.840;10.444;2023-12-20T00:14:44;1.20;99.90
26621;DHT22;14253;44.840;10.444;2023-12-20T00:17:10;1.30;99.90
26621;DHT22;14253;44.840;10.444;2023-12-20T00:19:36;1.20;99.90
26621;DHT22;14253;44.840;10.444;2023-12-20T00:22:02;1.30;99.90
26621;DHT22;14253;44.840;10.444;2023-12-20T00:24:28;1.30;99.90
26621;DHT22;14253;44.840;10.444;2023-12-20T00:26:55;1.30;99.90
26621;DHT22;14253;44.840;10.444;2023-12-20T00:29:21;1.30;99.90
26621;DHT22;14253;44.840;10.444;2023-12-20T00:31:47;1.30;99.90
26621;DHT22;14253;44.840;10.444;2023-12-20T00:34:13;1.30;99.90
26621;DHT22;14253;44.840;10.444;2023-12-20T00:36:39;1.30;99.90
26621;DHT22;14253;44.840;10.444;2023-12-20T00:39:05;1.30;99.90
26621;DHT22;14253;44.840;10.444;2023-12-20T00:41:32;1.10;99.90
26621;DHT22;14253;44.840;10.444;2023-12-20T00:43:58;1.10;99.90
26621;DHT22;14253;44.840;10.444;2023-12-20T00:46:24;1.10;99.90
26621;DHT22;14253;44.840;10.444;2023-12-20T00:48:50;1.00;99.90
26621;DHT22;14253;44.840;10.444;2023-12-20T00:51:16;1.10;99.90
26621;DHT22;14253;44.840;10.444;2023-12-20T00:53:42;1.10;99.90
26621;DHT22;14253;44.840;10.444;2023-12-20T00:56:08;1.10;99.90
26621;DHT22;14253;44.840;10.444;2023-12-20T00:58:34;1.10;99.90
26621;DHT22;14253;44.840;10.444;2023-12-20T01:01:00;1.10;99.90
26621;DHT22;14253;44.840;10.444;2023-12-20T01:03:26;1.10;99.90
26621;DHT22;14253;44.840;10.444;2023-12-20T01:05:52;1.10;99.90
26621;DHT22;14253;44.840;10.444;2023-12-20T01:08:18;1.00;99.90
26621;DHT22;14253;44.840;10.444;2023-12-20T01:10:44;1.00;99.90
26621;DHT22;14253;44.840;10.444;2023-12-20T01:13:12;1.00;99.90
26621;DHT22;14253;44.840;10.444;2023-12-20T01:15:38;0.90;99.90
26621;DHT22;14253;44.840;10.444;2023-12-20T01:18:04;1.00;99.90
26621;DHT22;14253;44.840;10.444;2023-12-20T01:20:30;0.90;99.90
26621;DHT22;14253;44.840;10.444;2023-12-20T01:22:56;1.00;99.90
26621;DHT22;14253;44.840;10.444;2023-12-20T01:25:22;1.00;99.90
26621;DHT22;14253;44.840;10.444;2023-12-20T01:27:48;1.00;99.90
26621;DHT22;14253;44.840;10.444;2023-12-20T01:30:15;0.90;99.90
26621;DHT22;14253;44.840;10.444;2023-12-20T01:32:41;0.90;99.90
26621;DHT22;14253;44.840;10.444;2023-12-20T01:35:07;1.00;99.90
26621;DHT22;14253;44.840;10.444;2023-12-20T01:37:33;1.00;99.90
26621;DHT22;14253;44.840;10.444;2023-12-20T01:39:59;1.00;99.90
26621;DHT22;14253;44.840;10.444;2023-12-20T01:42:25;1.10;99.90
26621;DHT22;14253;44.840;10.444;2023-12-20T01:44:51;1.00;99.90
26621;DHT22;14253;44.840;10.444;2023-12-20T01:47:17;1.10;99.90
26621;DHT22;14253;44.840;10.444;2023-12-20T01:49:43;1.10;99.90
26621;DHT22;14253;44.840;10.444;2023-12-20T01:52:09;1.10;99.90
26621;DHT22;14253;44.840;10.444;2023-12-20T01:54:36;1.10;99.90
26621;DHT22;14253;44.840;10.444;2023-12-20T01:57:03;1.00;99.90
26621;DHT22;14253;44.840;10.444;2023-12-20T01:59:29;1.00;99.90
26621;DHT22;14253;44.840;10.444;2023-12-20T02:01:56;1.00;99.90
26621;DHT22;14253;44.840;10.444;2023-12-20T02:04:22;0.90;99.90
26621;DHT22;14253;44.840;10.444;2023-12-20T02:06:52;0.90;99.90
26621;DHT22;14253;44.840;10.444;2023-12-20T02:09:18;1.00;99.90
26621;DHT22;14253;44.840;10.444;2023-12-20T02:11:44;0.80;99.90
26621;DHT22;14253;44.840;10.444;2023-12-20T02:14:10;0.80;99.90
26621;DHT22;14253;44.840;10.444;2023-12-20T02:16:36;0.70;99.90
26621;DHT22;14253;44.840;10.444;2023-12-20T02:19:04;0.70;99.90
26621;DHT22;14253;44.840;10.444;2023-12-20T02:21:34;0.70;99.90
26621;DHT22;14253;44.840;10.444;2023-12-20T02:24:01;0.60;99.90
26621;DHT22;14253;44.840;10.444;2023-12-20T02:26:27;0.60;99.90
26621;DHT22;14253;44.840;10.444;2023-12-20T02:28:53;0.50;99.90
26621;DHT22;14253;44.840;10.444;2023-12-20T02:31:21;0.50;99.90
26621;DHT22;14253;44.840;10.444;2023-12-20T02:33:48;0.40;99.90
26621;DHT22;14253;44.840;10.444;2023-12-20T02:36:14;0.40;99.90
26621;DHT22;14253;44.840;10.444;2023-12-20T02:38:40;0.40;99.90
26621;DHT22;14253;44.840;10.444;2023-12-20T02:41:05;0.40;99.90
26621;DHT22;14253;44.840;10.444;2023-12-20T02:43:31;0.40;99.90
26621;DHT22;14253;44.840;10.444;2023-12-20T02:45:57;0.30;99.90
26621;DHT22;14253;44.840;10.444;2023-12-20T02:48:23;0.30;99.90
26621;DHT22;14253;44.840;10.444;2023-12-20T02:50:49;0.30;99.90
26621;DHT22;14253;44.840;10.444;2023-12-20T02:53:16;0.30;99.90
26621;DHT22;14253;44.840;10.444;2023-12-20T02:55:42;0.30;99.90
26621;DHT22;14253;44.840;10.444;2023-12-20T02:58:08;0.40;99.90
26621;DHT22;14253;44.840;10.444;2023-12-20T03:00:34;0.40;99.90
26621;DHT22;14253;44.840;10.444;2023-12-20T03:02:59;0.40;99.90
26621;DHT22;14253;44.840;10.444;2023-12-20T03:05:25;0.40;99.90
26621;DHT22;14253;44.840;10.444;2023-12-20T03:07:52;0.40;99.90
26621;DHT22;14253;44.840;10.444;2023-12-20T03:10:18;0.30;99.90
26621;DHT22;14253;44.840;10.444;2023-12-20T03:12:44;0.20;99.90
26621;DHT22;14253;44.840;10.444;2023-12-20T03:15:10;0.30;99.90
26621;DHT22;14253;44.840;10.444;2023-12-20T03:17:36;0.30;99.90
26621;DHT22;14253;44.840;10.444;2023-12-20T03:20:03;0.20;99.90
26621;DHT22;14253;44.840;10.444;2023-12-20T03:22:29;0.10;99.90
26621;DHT22;14253;44.840;10.444;2023-12-20T03:24:54;0.10;99.90
26621;DHT22;14253;44.840;10.444;2023-12-20T03:27:20;0.10;99.90
26621;DHT22;14253;44.840;10.444;2023-12-20T03:29:46;0.20;99.90
26621;DHT22;14253;44.840;10.444;2023-12-20T03:32:12;0.20;99.90
26621;DHT22;14253;44.840;10.444;2023-12-20T03:34:38;0.30;99.90
26621;DHT22;14253;44.840;10.444;2023-12-20T03:37:04;0.40;99.90
26621;DHT22;14253;44.840;10.444;2023-12-20T03:39:30;0.40;99.90
26621;DHT22;14253;44.840;10.444;2023-12-20T03:41:56;0.40;99.90
26621;DHT22;14253;44.840;10.444;2023-12-20T03:44:22;0.40;99.90
26621;DHT22;14253;44.840;10.444;2023-12-20T03:46:48;0.50;99.90
26621;DHT22;14253;44.840;10.444;2023-12-20T03:49:14;0.50;99.90
26621;DHT22;14253;44.840;10.444;2023-12-20T03:51:41;0.50;99.90
26621;DHT22;14253;44.840;10.444;2023-12-20T03:54:08;0.50;99.90
26621;DHT22;14253;44.840;10.444;2023-12-20T03:56:34;0.60;99.90
26621;DHT22;14253;44.840;10.444;2023-12-20T03:59:00;0.70;99.90
26621;DHT22;14253;44.840;10.444;2023-12-20T04:01:27;0.80;99.90
26621;DHT22;14253;44.840;10.444;2023-12-20T04:03:53;0.90;99.90
26621;DHT22;14253;44.840;10.444;2023-12-20T04:06:19;0.80;99.90
26621;DHT22;14253;44.840;10.444;2023-12-20T04:08:45;0.80;99.90
26621;DHT22;14253;44.840;10.444;2023-12-20T04:11:11;0.80;99.90
26621;DHT22;14253;44.840;10.444;2023-12-20T04:13:37;0.80;99.90
26621;DHT22;14253;44.840;10.444;2023-12-20T04:16:03;0.80;99.90
26621;DHT22;14253;44.840;10.444;2023-12-20T04:18:29;0.80;99.90
26621;DHT22;14253;44.840;10.444;2023-12-20T04:20:55;0.70;99.90
26621;DHT22;14253;44.840;10.444;2023-12-20T04:23:21;0.70;99.90
26621;DHT22;14253;44.840;10.444;2023-12-20T04:25:47;0.70;99.90
26621;DHT22;14253;44.840;10.444;2023-12-20T04:28:13;0.80;99.90
26621;DHT22;14253;44.840;10.444;2023-12-20T04:30:39;0.80;99.90
26621;DHT22;14253;44.840;10.444;2023-12-20T04:33:05;0.90;99.90
26621;DHT22;14253;44.840;10.444;2023-12-20T04:35:30;0.80;99.90
26621;DHT22;14253;44.840;10.444;2023-12-20T04:37:56;0.80;99.90
26621;DHT22;14253;44.840;10.444;2023-12-20T04:40:22;0.80;99.90
26621;DHT22;14253;44.840;10.444;2023-12-20T04:42:48;0.80;99.90
26621;DHT22;14253;44.840;10.444;2023-12-20T04:45:14;0.70;99.90
26621;DHT22;14253;44.840;10.444;2023-12-20T04:47:42;0.70;99.90
26621;DHT22;14253;44.840;10.444;2023-12-20T04:50:08;0.60;99.90
26621;DHT22;14253;44.840;10.444;2023-12-20T04:52:35;0.60;99.90
26621;DHT22;14253;44.840;10.444;2023-12-20T04:55:01;0.60;99.90
26621;DHT22;14253;44.840;10.444;2023-12-20T04:57:27;0.60;99.90
26621;DHT22;14253;44.840;10.444;2023-12-20T04:59:53;0.70;99.90
26621;DHT22;14253;44.840;10.444;2023-12-20T05:02:19;0.70;99.90
26621;DHT22;14253;44.840;10.444;2023-12-20T05:04:45;0.70;99.90
26621;DHT22;14253;44.840;10.444;2023-12-20T05:07:11;0.80;99.90
26621;DHT22;14253;44.840;10.444;2023-12-20T05:09:37;0.70;99.90
26621;DHT22;14253;44.840;10.444;2023-12-20T05:12:03;0.80;99.90
26621;DHT22;14253;44.840;10.444;2023-12-20T05:14:29;1.00;99.90
26621;DHT22;14253;44.840;10.444;2023-12-20T05:16:56;1.20;99.90
26621;DHT22;14253;44.840;10.444;2023-12-20T05:19:22;1.30;99.90
26621;DHT22;14253;44.840;10.444;2023-12-20T05:21:48;1.50;99.90
26621;DHT22;14253;44.840;10.444;2023-12-20T05:24:15;1.50;99.90
26621;DHT22;14253;44.840;10.444;2023-12-20T05:26:41;1.60;99.90
26621;DHT22;14253;44.840;10.444;2023-12-20T05:29:06;1.70;99.90
26621;DHT22;14253;44.840;10.444;2023-12-20T05:31:32;1.70;99.90
26621;DHT22;14253;44.840;10.444;2023-12-20T05:33:58;1.70;99.90
26621;DHT22;14253;44.840;10.444;2023-12-20T05:36:24;1.70;99.90
26621;DHT22;14253;44.840;10.444;2023-12-20T05:38:50;1.70;99.90
26621;DHT22;14253;44.840;10.444;2023-12-20T05:41:16;1.70;99.90
26621;DHT22;14253;44.840;10.444;2023-12-20T05:43:42;1.70;99.90
26621;DHT22;14253;44.840;10.444;2023-12-20T05:46:10;1.70;99.90
26621;DHT22;14253;44.840;10.444;2023-12-20T05:48:37;1.80;99.90
26621;DHT22;14253;44.840;10.444;2023-12-20T05:51:04;1.70;99.90
26621;DHT22;14253;44.840;10.444;2023-12-20T05:53:30;1.70;99.90
26621;DHT22;14253;44.840;10.444;2023-12-20T05:55:56;1.60;99.90
26621;DHT22;14253;44.840;10.444;2023-12-20T05:58:22;1.60;99.90
26621;DHT22;14253;44.840;10.444;2023-12-20T06:00:58;1.60;99.90
26621;DHT22;14253;44.840;10.444;2023-12-20T06:03:28;1.60;99.90
26621;DHT22;14253;44.840;10.444;2023-12-20T06:05:53;1.60;99.90
26621;DHT22;14253;44.840;10.444;2023-12-20T06:08:19;1.60;99.90
26621;DHT22;14253;44.840;10.444;2023-12-20T06:10:45;1.60;99.90
26621;DHT22;14253;44.840;10.444;2023-12-20T06:13:11;1.60;99.90
26621;DHT22;14253;44.840;10.444;2023-12-20T06:15:39;1.60;99.90
26621;DHT22;14253;44.840;10.444;2023-12-20T06:18:06;1.70;99.90
26621;DHT22;14253;44.840;10.444;2023-12-20T06:20:32;1.70;99.90
26621;DHT22;14253;44.840;10.444;2023-12-20T06:22:59;1.70;99.90
26621;DHT22;14253;44.840;10.444;2023-12-20T06:25:25;1.80;99.90
26621;DHT22;14253;44.840;10.444;2023-12-20T06:27:51;1.90;99.90
26621;DHT22;14253;44.840;10.444;2023-12-20T06:30:17;2.00;99.90
26621;DHT22;14253;44.840;10.444;2023-12-20T06:32:43;2.00;99.90
26621;DHT22;14253;44.840;10.444;2023-12-20T06:35:09;2.00;99.90
26621;DHT22;14253;44.840;10.444;2023-12-20T06:37:35;2.00;99.90
26621;DHT22;14253;44.840;10.444;2023-12-20T06:40:01;2.10;99.90
26621;DHT22;14253;44.840;10.444;2023-12-20T06:42:27;2.10;99.90
26621;DHT22;14253;44.840;10.444;2023-12-20T06:44:53;2.10;99.90
26621;DHT22;14253;44.840;10.444;2023-12-20T06:47:19;2.10;99.90
26621;DHT22;14253;44.840;10.444;2023-12-20T06:49:45;2.10;99.90
26621;DHT22;14253;44.840;10.444;2023-12-20T06:52:11;2.10;99.90
26621;DHT22;14253;44.840;10.444;2023-12-20T06:54:37;2.10;99.90
26621;DHT22;14253;44.840;10.444;2023-12-20T06:57:03;2.10;99.90
26621;DHT22;14253;44.840;10.444;2023-12-20T06:59:30;2.10;99.90
26621;DHT22;14253;44.840;10.444;2023-12-20T07:01:56;2.10;99.90
26621;DHT22;14253;44.840;10.444;2023-12-20T07:04:22;2.10;99.90
26621;DHT22;14253;44.840;10.444;2023-12-20T07:06:48;2.10;99.90
26621;DHT22;14253;44.840;10.444;2023-12-20T07:09:17;2.10;99.90
26621;DHT22;14253;44.840;10.444;2023-12-20T07:11:43;2.20;99.90
26621;DHT22;14253;44.840;10.444;2023-12-20T07:14:09;2.20;99.90
26621;DHT22;14253;44.840;10.444;2023-12-20T07:16:35;2.20;99.90
26621;DHT22;14253;44.840;10.444;2023-12-20T07:19:01;2.30;99.90
26621;DHT22;14253;44.840;10.444;2023-12-20T07:21:27;2.30;99.90
26621;DHT22;14253;44.840;10.444;2023-12-20T07:23:53;2.30;99.90
26621;DHT22;14253;44.840;10.444;2023-12-20T07:26:19;2.30;99.90
26621;DHT22;14253;44.840;10.444;2023-12-20T07:28:46;2.40;99.90
26621;DHT22;14253;44.840;10.444;2023-12-20T07:31:12;2.30;99.90
26621;DHT22;14253;44.840;10.444;2023-12-20T07:33:38;2.40;99.90
26621;DHT22;14253;44.840;10.444;2023-12-20T07:36:04;2.30;99.90
26621;DHT22;14253;44.840;10.444;2023-12-20T07:38:30;2.30;99.90
26621;DHT22;14253;44.840;10.444;2023-12-20T07:40:56;2.40;99.90
26621;DHT22;14253;44.840;10.444;2023-12-20T07:43:22;2.40;99.90
26621;DHT22;14253;44.840;10.444;2023-12-20T07:45:48;2.40;99.90
26621;DHT22;14253;44.840;10.444;2023-12-20T07:48:14;2.50;99.90
26621;DHT22;14253;44.840;10.444;2023-12-20T07:50:40;2.50;99.90
26621;DHT22;14253;44.840;10.444;2023-12-20T07:53:08;2.40;99.90
26621;DHT22;14253;44.840;10.444;2023-12-20T07:55:34;2.50;99.90
26621;DHT22;14253;44.840;10.444;2023-12-20T07:58:00;2.50;99.90
26621;DHT22;14253;44.840;10.444;2023-12-20T08:00:26;2.50;99.90
26621;DHT22;14253;44.840;10.444;2023-12-20T08:02:54;2.60;99.90
26621;DHT22;14253;44.840;10.444;2023-12-20T08:05:22;2.70;99.90
26621;DHT22;14253;44.840;10.444;2023-12-20T08:07:48;2.80;99.90
26621;DHT22;14253;44.840;10.444;2023-12-20T08:10:15;2.90;99.90
26621;DHT22;14253;44.840;10.444;2023-12-20T08:12:43;3.10;99.90
26621;DHT22;14253;44.840;10.444;2023-12-20T08:15:10;3.10;99.90
26621;DHT22;14253;44.840;10.444;2023-12-20T08:17:35;3.20;99.90
26621;DHT22;14253;44.840;10.444;2023-12-20T08:20:02;3.20;99.90
26621;DHT22;14253;44.840;10.444;2023-12-20T08:22:28;3.20;99.90
26621;DHT22;14253;44.840;10.444;2023-12-20T08:24:53;3.30;99.90
26621;DHT22;14253;44.840;10.444;2023-12-20T08:27:19;3.30;99.90
26621;DHT22;14253;44.840;10.444;2023-12-20T08:29:45;3.40;99.90
26621;DHT22;14253;44.840;10.444;2023-12-20T08:32:12;3.40;99.90
26621;DHT22;14253;44.840;10.444;2023-12-20T08:34:38;3.40;99.90
26621;DHT22;14253;44.840;10.444;2023-12-20T08:37:04;3.30;99.90
26621;DHT22;14253;44.840;10.444;2023-12-20T08:39:29;3.40;99.90
26621;DHT22;14253;44.840;10.444;2023-12-20T08:41:56;3.40;99.90
26621;DHT22;14253;44.840;10.444;2023-12-20T08:44:22;3.50;99.90
26621;DHT22;14253;44.840;10.444;2023-12-20T08:46:48;3.50;99.90
26621;DHT22;14253;44.840;10.444;2023-12-20T08:49:14;3.60;99.90
26621;DHT22;14253;44.840;10.444;2023-12-20T08:51:40;3.70;99.90
26621;DHT22;14253;44.840;10.444;2023-12-20T08:54:07;3.70;99.90
26621;DHT22;14253;44.840;10.444;2023-12-20T08:56:35;3.70;99.90
26621;DHT22;14253;44.840;10.444;2023-12-20T08:59:01;3.80;99.90
26621;DHT22;14253;44.840;10.444;2023-12-20T09:01:28;3.80;99.90
26621;DHT22;14253;44.840;10.444;2023-12-20T09:03:53;3.90;99.90
26621;DHT22;14253;44.840;10.444;2023-12-20T09:06:19;3.90;99.90
26621;DHT22;14253;44.840;10.444;2023-12-20T09:08:45;4.00;99.90
26621;DHT22;14253;44.840;10.444;2023-12-20T09:11:11;4.10;99.90
26621;DHT22;14253;44.840;10.444;2023-12-20T09:13:37;4.10;99.90
26621;DHT22;14253;44.840;10.444;2023-12-20T09:16:03;4.20;99.90
26621;DHT22;14253;44.840;10.444;2023-12-20T09:18:29;4.20;99.90
26621;DHT22;14253;44.840;10.444;2023-12-20T09:20:55;4.30;99.90
26621;DHT22;14253;44.840;10.444;2023-12-20T09:23:21;4.40;99.90
26621;DHT22;14253;44.840;10.444;2023-12-20T09:25:47;4.40;99.90
26621;DHT22;14253;44.840;10.444;2023-12-20T09:28:13;4.50;99.90
26621;DHT22;14253;44.840;10.444;2023-12-20T09:30:39;4.60;99.90
26621;DHT22;14253;44.840;10.444;2023-12-20T09:33:06;4.60;99.90
26621;DHT22;14253;44.840;10.444;2023-12-20T09:35:33;4.60;99.90
26621;DHT22;14253;44.840;10.444;2023-12-20T09:37:58;4.70;99.90
26621;DHT22;14253;44.840;10.444;2023-12-20T09:40:26;4.80;99.90
26621;DHT22;14253;44.840;10.444;2023-12-20T09:43:14;4.90;99.90
26621;DHT22;14253;44.840;10.444;2023-12-20T09:46:00;5.00;99.90
26621;DHT22;14253;44.840;10.444;2023-12-20T09:48:31;5.10;99.90
26621;DHT22;14253;44.840;10.444;2023-12-20T09:51:02;5.10;99.90
26621;DHT22;14253;44.840;10.444;2023-12-20T09:53:29;5.10;99.90
26621;DHT22;14253;44.840;10.444;2023-12-20T09:55:59;5.30;99.90
26621;DHT22;14253;44.840;10.444;2023-12-20T09:58:28;5.40;99.90
26621;DHT22;14253;44.840;10.444;2023-12-20T10:00:55;5.50;99.90
26621;DHT22;14253;44.840;10.444;2023-12-20T10:03:25;5.60;99.90
26621;DHT22;14253;44.840;10.444;2023-12-20T10:05:56;5.70;99.90
26621;DHT22;14253;44.840;10.444;2023-12-20T10:08:24;5.80;99.90
26621;DHT22;14253;44.840;10.444;2023-12-20T10:10:50;5.90;99.90
26621;DHT22;14253;44.840;10.444;2023-12-20T10:13:16;6.00;99.90
26621;DHT22;14253;44.840;10.444;2023-12-20T10:15:43;6.10;99.90
26621;DHT22;14253;44.840;10.444;2023-12-20T10:18:09;6.10;99.90
26621;DHT22;14253;44.840;10.444;2023-12-20T10:20:36;6.10;99.90
26621;DHT22;14253;44.840;10.444;2023-12-20T10:23:02;6.10;99.90
26621;DHT22;14253;44.840;10.444;2023-12-20T10:25:28;6.10;99.90
26621;DHT22;14253;44.840;10.444;2023-12-20T10:28:13;6.10;99.90
26621;DHT22;14253;44.840;10.444;2023-12-20T10:30:40;6.10;99.90
26621;DHT22;14253;44.840;10.444;2023-12-20T10:33:09;6.00;99.90
26621;DHT22;14253;44.840;10.444;2023-12-20T10:35:36;6.00;99.90
26621;DHT22;14253;44.840;10.444;2023-12-20T10:38:06;5.90;99.90
26621;DHT22;14253;44.840;10.444;2023-12-20T10:40:36;5.90;99.90
26621;DHT22;14253;44.840;10.444;2023-12-20T10:43:05;5.80;99.90
26621;DHT22;14253;44.840;10.444;2023-12-20T10:45:31;5.80;99.90
26621;DHT22;14253;44.840;10.444;2023-12-20T10:47:58;5.80;99.90
26621;DHT22;14253;44.840;10.444;2023-12-20T10:50:27;5.80;99.90
26621;DHT22;14253;44.840;10.444;2023-12-20T10:52:55;5.80;99.90
26621;DHT22;14253;44.840;10.444;2023-12-20T10:55:22;5.80;99.90
26621;DHT22;14253;44.840;10.444;2023-12-20T10:57:52;5.80;99.90
26621;DHT22;14253;44.840;10.444;2023-12-20T11:00:21;5.80;99.90
26621;DHT22;14253;44.840;10.444;2023-12-20T11:02:49;5.80;99.90
26621;DHT22;14253;44.840;10.444;2023-12-20T11:07:57;5.80;99.90
26621;DHT22;14253;44.840;10.444;2023-12-20T11:14:05;5.80;99.90
26621;DHT22;14253;44.840;10.444;2023-12-20T11:16:37;5.80;99.90
26621;DHT22;14253;44.840;10.444;2023-12-20T11:19:06;5.90;99.90
26621;DHT22;14253;44.840;10.444;2023-12-20T11:21:32;5.90;99.90
26621;DHT22;14253;44.840;10.444;2023-12-20T11:23:59;5.90;99.90
26621;DHT22;14253;44.840;10.444;2023-12-20T11:26:29;6.00;99.90
26621;DHT22;14253;44.840;10.444;2023-12-20T11:29:34;6.00;99.90
26621;DHT22;14253;44.840;10.444;2023-12-20T11:34:51;6.20;99.90
26621;DHT22;14253;44.840;10.444;2023-12-20T11:37:19;6.20;99.90
26621;DHT22;14253;44.840;10.444;2023-12-20T11:39:53;6.30;99.90
26621;DHT22;14253;44.840;10.444;2023-12-20T11:42:20;6.30;99.90
26621;DHT22;14253;44.840;10.444;2023-12-20T11:44:46;6.30;99.90
26621;DHT22;14253;44.840;10.444;2023-12-20T11:47:13;6.30;99.90
26621;DHT22;14253;44.840;10.444;2023-12-20T11:49:39;6.30;99.90
26621;DHT22;14253;44.840;10.444;2023-12-20T11:52:06;6.30;99.90
26621;DHT22;14253;44.840;10.444;2023-12-20T11:54:32;6.30;99.90
26621;DHT22;14253;44.840;10.444;2023-12-20T11:57:07;6.30;99.90
26621;DHT22;14253;44.840;10.444;2023-12-20T11:59:33;6.30;99.90
26621;DHT22;14253;44.840;10.444;2023-12-20T12:01:59;6.40;99.90
26621;DHT22;14253;44.840;10.444;2023-12-20T12:04:27;6.30;99.90
26621;DHT22;14253;44.840;10.444;2023-12-20T12:06:54;6.30;99.90
26621;DHT22;14253;44.840;10.444;2023-12-20T12:09:19;6.30;99.90
26621;DHT22;14253;44.840;10.444;2023-12-20T12:11:45;6.40;99.90
26621;DHT22;14253;44.840;10.444;2023-12-20T12:14:12;6.40;99.90
26621;DHT22;14253;44.840;10.444;2023-12-20T12:16:38;6.50;99.90
26621;DHT22;14253;44.840;10.444;2023-12-20T12:19:03;6.50;99.90
26621;DHT22;14253;44.840;10.444;2023-12-20T12:21:30;6.60;99.90
26621;DHT22;14253;44.840;10.444;2023-12-20T12:24:09;6.70;99.90
26621;DHT22;14253;44.840;10.444;2023-12-20T12:26:35;6.70;99.90
26621;DHT22;14253;44.840;10.444;2023-12-20T12:29:01;6.70;99.90
26621;DHT22;14253;44.840;10.444;2023-12-20T12:31:27;6.70;99.90
26621;DHT22;14253;44.840;10.444;2023-12-20T12:33:53;6.70;99.90
26621;DHT22;14253;44.840;10.444;2023-12-20T12:36:19;6.70;99.90
26621;DHT22;14253;44.840;10.444;2023-12-20T12:38:45;6.80;99.90
26621;DHT22;14253;44.840;10.444;2023-12-20T12:41:13;6.90;99.90
26621;DHT22;14253;44.840;10.444;2023-12-20T12:43:39;7.10;99.90
26621;DHT22;14253;44.840;10.444;2023-12-20T12:46:05;7.20;99.90
26621;DHT22;14253;44.840;10.444;2023-12-20T12:48:31;7.30;99.90
26621;DHT22;14253;44.840;10.444;2023-12-20T12:50:57;7.40;99.90
26621;DHT22;14253;44.840;10.444;2023-12-20T12:53:25;7.50;99.90
26621;DHT22;14253;44.840;10.444;2023-12-20T12:55:52;7.50;99.90
26621;DHT22;14253;44.840;10.444;2023-12-20T12:58:19;7.50;99.90
26621;DHT22;14253;44.840;10.444;2023-12-20T13:00:45;7.50;99.90
26621;DHT22;14253;44.840;10.444;2023-12-20T13:03:11;7.60;99.90
26621;DHT22;14253;44.840;10.444;2023-12-20T13:05:37;7.60;99.90
26621;DHT22;14253;44.840;10.444;2023-12-20T13:08:03;7.60;99.90
26621;DHT22;14253;44.840;10.444;2023-12-20T13:10:29;7.60;99.90
26621;DHT22;14253;44.840;10.444;2023-12-20T13:12:55;7.70;99.90
26621;DHT22;14253;44.840;10.444;2023-12-20T13:15:21;7.80;99.90
26621;DHT22;14253;44.840;10.444;2023-12-20T13:17:47;7.90;99.90
26621;DHT22;14253;44.840;10.444;2023-12-20T13:20:13;8.00;99.90
26621;DHT22;14253;44.840;10.444;2023-12-20T13:22:41;8.00;99.90
26621;DHT22;14253;44.840;10.444;2023-12-20T13:25:08;8.10;99.90
26621;DHT22;14253;44.840;10.444;2023-12-20T13:27:34;8.20;99.90
26621;DHT22;14253;44.840;10.444;2023-12-20T13:30:00;8.30;99.90
26621;DHT22;14253;44.840;10.444;2023-12-20T13:32:26;8.40;99.90
26621;DHT22;14253;44.840;10.444;2023-12-20T13:34:52;8.30;99.90
26621;DHT22;14253;44.840;10.444;2023-12-20T13:37:18;8.30;99.90
26621;DHT22;14253;44.840;10.444;2023-12-20T13:39:44;8.30;99.90
26621;DHT22;14253;44.840;10.444;2023-12-20T13:42:10;8.30;99.90
26621;DHT22;14253;44.840;10.444;2023-12-20T13:44:36;8.20;99.90
26621;DHT22;14253;44.840;10.444;2023-12-20T13:47:02;8.10;99.90
26621;DHT22;14253;44.840;10.444;2023-12-20T13:49:29;8.00;99.90
26621;DHT22;14253;44.840;10.444;2023-12-20T13:51:55;7.90;99.90
26621;DHT22;14253;44.840;10.444;2023-12-20T13:54:23;7.90;99.90
26621;DHT22;14253;44.840;10.444;2023-12-20T13:56:49;7.90;99.90
26621;DHT22;14253;44.840;10.444;2023-12-20T13:59:21;7.90;99.90
26621;DHT22;14253;44.840;10.444;2023-12-20T14:02:01;7.80;99.90
26621;DHT22;14253;44.840;10.444;2023-12-20T14:04:29;7.80;99.90
26621;DHT22;14253;44.840;10.444;2023-12-20T14:07:03;7.80;99.90
26621;DHT22;14253;44.840;10.444;2023-12-20T14:09:29;7.90;99.90
26621;DHT22;14253;44.840;10.444;2023-12-20T14:11:55;7.90;99.90
26621;DHT22;14253;44.840;10.444;2023-12-20T14:14:21;7.90;99.90
26621;DHT22;14253;44.840;10.444;2023-12-20T14:16:47;7.90;99.90
26621;DHT22;14253;44.840;10.444;2023-12-20T14:19:13;7.90;99.90
26621;DHT22;14253;44.840;10.444;2023-12-20T14:21:39;7.90;99.90
26621;DHT22;14253;44.840;10.444;2023-12-20T14:24:10;7.90;99.90
26621;DHT22;14253;44.840;10.444;2023-12-20T14:26:36;7.90;99.90
26621;DHT22;14253;44.840;10.444;2023-12-20T14:29:03;7.90;99.90
26621;DHT22;14253;44.840;10.444;2023-12-20T14:31:29;7.80;99.90
26621;DHT22;14253;44.840;10.444;2023-12-20T14:33:55;7.80;99.90
26621;DHT22;14253;44.840;10.444;2023-12-20T14:36:21;7.70;99.90
26621;DHT22;14253;44.840;10.444;2023-12-20T14:38:47;7.60;99.90
26621;DHT22;14253;44.840;10.444;2023-12-20T14:41:15;7.60;99.90
26621;DHT22;14253;44.840;10.444;2023-12-20T14:43:44;7.50;99.90
26621;DHT22;14253;44.840;10.444;2023-12-20T14:46:10;7.40;99.90
26621;DHT22;14253;44.840;10.444;2023-12-20T14:48:36;7.30;99.90
26621;DHT22;14253;44.840;10.444;2023-12-20T14:51:03;7.30;99.90
26621;DHT22;14253;44.840;10.444;2023-12-20T14:53:29;7.20;99.90
26621;DHT22;14253;44.840;10.444;2023-12-20T14:55:54;7.10;99.90
26621;DHT22;14253;44.840;10.444;2023-12-20T14:58:20;7.00;99.90
26621;DHT22;14253;44.840;10.444;2023-12-20T15:00:46;6.90;99.90
26621;DHT22;14253;44.840;10.444;2023-12-20T15:03:12;6.80;99.90
26621;DHT22;14253;44.840;10.444;2023-12-20T15:05:38;6.70;99.90
26621;DHT22;14253;44.840;10.444;2023-12-20T15:08:05;6.50;99.90
26621;DHT22;14253;44.840;10.444;2023-12-20T15:10:31;6.50;99.90
26621;DHT22;14253;44.840;10.444;2023-12-20T15:12:57;6.30;99.90
26621;DHT22;14253;44.840;10.444;2023-12-20T15:15:23;6.20;99.90
26621;DHT22;14253;44.840;10.444;2023-12-20T15:17:49;6.10;99.90
26621;DHT22;14253;44.840;10.444;2023-12-20T15:20:15;6.00;99.90
26621;DHT22;14253;44.840;10.444;2023-12-20T15:22:41;5.90;99.90
26621;DHT22;14253;44.840;10.444;2023-12-20T15:25:11;5.80;99.90
26621;DHT22;14253;44.840;10.444;2023-12-20T15:27:38;5.70;99.90
26621;DHT22;14253;44.840;10.444;2023-12-20T15:30:05;5.60;99.90
26621;DHT22;14253;44.840;10.444;2023-12-20T15:32:35;5.50;99.90
26621;DHT22;14253;44.840;10.444;2023-12-20T15:35:02;5.40;99.90